sensor_id;sensor_type;location;lat;lon;timestamp;P1;durP1;ratioP1;P2;durP2;ratioP2
58055;SDS011;53159;55.152;36.614;2022-09-09T00:01:23;4.70;;;3.83;;
58055;SDS011;53159;55.152;36.614;2022-09-09T00:04:21;4.50;;;3.45;;
58055;SDS011;53159;55.152;36.614;2022-09-09T00:07:01;4.70;;;3.97;;
58055;SDS011;53159;55.152;36.614;2022-09-09T00:15:00;4.88;;;3.63;;
58055;SDS011;53159;55.152;36.614;2022-09-09T00:20:06;8.38;;;3.70;;
58055;SDS011;53159;55.152;36.614;2022-09-09T00:22:40;6.38;;;3.83;;
58055;SDS011;53159;55.152;36.614;2022-09-09T00:25:18;5.78;;;4.18;;
58055;SDS011;53159;55.152;36.614;2022-09-09T00:27:57;6.60;;;4.25;;
58055;SDS011;53159;55.152;36.614;2022-09-09T00:30:26;7.78;;;4.22;;
58055;SDS011;53159;55.152;36.614;2022-09-09T00:32:59;5.30;;;4.15;;
58055;SDS011;53159;55.152;36.614;2022-09-09T00:35:32;6.35;;;5.10;;
58055;SDS011;53159;55.152;36.614;2022-09-09T00:43:40;6.45;;;4.00;;
58055;SDS011;53159;55.152;36.614;2022-09-09T00:49:02;9.43;;;4.72;;
58055;SDS011;53159;55.152;36.614;2022-09-09T00:55:14;4.95;;;4.25;;
58055;SDS011;53159;55.152;36.614;2022-09-09T00:57:44;6.15;;;4.47;;
58055;SDS011;53159;55.152;36.614;2022-09-09T01:00:18;4.75;;;4.35;;
58055;SDS011;53159;55.152;36.614;2022-09-09T01:08:11;4.68;;;4.18;;
58055;SDS011;53159;55.152;36.614;2022-09-09T01:10:54;6.90;;;4.97;;
58055;SDS011;53159;55.152;36.614;2022-09-09T01:13:29;4.95;;;4.50;;
58055;SDS011;53159;55.152;36.614;2022-09-09T01:16:10;5.05;;;4.55;;
58055;SDS011;53159;55.152;36.614;2022-09-09T01:18:44;7.38;;;4.72;;
58055;SDS011;53159;55.152;36.614;2022-09-09T01:22:06;5.03;;;4.47;;
58055;SDS011;53159;55.152;36.614;2022-09-09T01:24:31;5.25;;;4.70;;
58055;SDS011;53159;55.152;36.614;2022-09-09T01:27:25;7.80;;;5.97;;
58055;SDS011;53159;55.152;36.614;2022-09-09T01:29:52;7.75;;;6.55;;
58055;SDS011;53159;55.152;36.614;2022-09-09T01:35:03;8.82;;;6.10;;
58055;SDS011;53159;55.152;36.614;2022-09-09T01:37:32;7.97;;;5.85;;
58055;SDS011;53159;55.152;36.614;2022-09-09T01:39:59;9.65;;;6.53;;
58055;SDS011;53159;55.152;36.614;2022-09-09T01:42:25;6.90;;;6.07;;
58055;SDS011;53159;55.152;36.614;2022-09-09T01:44:53;9.23;;;5.90;;
58055;SDS011;53159;55.152;36.614;2022-09-09T01:47:22;7.38;;;5.32;;
58055;SDS011;53159;55.152;36.614;2022-09-09T01:50:05;16.80;;;7.93;;
58055;SDS011;53159;55.152;36.614;2022-09-09T01:52:38;8.82;;;5.40;;
58055;SDS011;53159;55.152;36.614;2022-09-09T01:55:11;7.05;;;5.78;;
58055;SDS011;53159;55.152;36.614;2022-09-09T01:57:43;7.40;;;5.78;;
58055;SDS011;53159;55.152;36.614;2022-09-09T02:00:54;8.05;;;5.55;;
58055;SDS011;53159;55.152;36.614;2022-09-09T02:03:33;10.90;;;6.20;;
58055;SDS011;53159;55.152;36.614;2022-09-09T02:09:21;6.47;;;5.32;;
58055;SDS011;53159;55.152;36.614;2022-09-09T02:12:02;9.85;;;6.32;;
58055;SDS011;53159;55.152;36.614;2022-09-09T02:15:07;7.28;;;5.18;;
58055;SDS011;53159;55.152;36.614;2022-09-09T02:17:49;8.73;;;6.35;;
58055;SDS011;53159;55.152;36.614;2022-09-09T02:20:20;7.03;;;5.70;;
58055;SDS011;53159;55.152;36.614;2022-09-09T02:22:59;7.25;;;5.53;;
58055;SDS011;53159;55.152;36.614;2022-09-09T02:25:30;7.10;;;5.93;;
58055;SDS011;53159;55.152;36.614;2022-09-09T02:28:11;7.30;;;5.45;;
58055;SDS011;53159;55.152;36.614;2022-09-09T02:30:42;8.52;;;5.03;;
58055;SDS011;53159;55.152;36.614;2022-09-09T02:33:15;6.43;;;5.00;;
58055;SDS011;53159;55.152;36.614;2022-09-09T02:35:48;5.85;;;4.43;;
58055;SDS011;53159;55.152;36.614;2022-09-09T02:38:25;7.20;;;5.53;;
58055;SDS011;53159;55.152;36.614;2022-09-09T02:41:11;5.28;;;4.05;;
58055;SDS011;53159;55.152;36.614;2022-09-09T02:43:39;5.95;;;5.35;;
58055;SDS011;53159;55.152;36.614;2022-09-09T02:46:32;8.07;;;3.92;;
58055;SDS011;53159;55.152;36.614;2022-09-09T02:49:18;4.75;;;3.40;;
58055;SDS011;53159;55.152;36.614;2022-09-09T02:52:08;4.75;;;3.90;;
58055;SDS011;53159;55.152;36.614;2022-09-09T02:55:07;5.47;;;4.30;;
58055;SDS011;53159;55.152;36.614;2022-09-09T02:57:51;5.80;;;3.63;;
58055;SDS011;53159;55.152;36.614;2022-09-09T03:00:25;7.95;;;3.70;;
58055;SDS011;53159;55.152;36.614;2022-09-09T03:02:57;3.95;;;3.13;;
58055;SDS011;53159;55.152;36.614;2022-09-09T03:05:25;4.57;;;3.63;;
58055;SDS011;53159;55.152;36.614;2022-09-09T03:07:55;4.40;;;3.47;;
58055;SDS011;53159;55.152;36.614;2022-09-09T03:10:23;6.40;;;3.65;;
58055;SDS011;53159;55.152;36.614;2022-09-09T03:12:52;6.28;;;3.58;;
58055;SDS011;53159;55.152;36.614;2022-09-09T03:15:22;5.07;;;3.88;;
58055;SDS011;53159;55.152;36.614;2022-09-09T03:17:49;5.18;;;3.55;;
58055;SDS011;53159;55.152;36.614;2022-09-09T03:20:17;6.95;;;3.35;;
58055;SDS011;53159;55.152;36.614;2022-09-09T03:22:47;3.72;;;3.30;;
58055;SDS011;53159;55.152;36.614;2022-09-09T03:25:14;4.18;;;3.42;;
58055;SDS011;53159;55.152;36.614;2022-09-09T03:27:41;4.97;;;3.40;;
58055;SDS011;53159;55.152;36.614;2022-09-09T03:30:10;4.40;;;3.55;;
58055;SDS011;53159;55.152;36.614;2022-09-09T03:32:38;4.97;;;4.10;;
58055;SDS011;53159;55.152;36.614;2022-09-09T03:35:09;3.97;;;3.38;;
58055;SDS011;53159;55.152;36.614;2022-09-09T03:37:35;5.18;;;3.40;;
58055;SDS011;53159;55.152;36.614;2022-09-09T03:40:04;5.07;;;3.50;;
58055;SDS011;53159;55.152;36.614;2022-09-09T03:42:32;5.28;;;4.70;;
58055;SDS011;53159;55.152;36.614;2022-09-09T03:44:59;5.75;;;3.95;;
58055;SDS011;53159;55.152;36.614;2022-09-09T03:47:28;4.05;;;3.63;;
58055;SDS011;53159;55.152;36.614;2022-09-09T03:50:04;8.23;;;4.50;;
58055;SDS011;53159;55.152;36.614;2022-09-09T03:52:35;5.03;;;4.28;;
58055;SDS011;53159;55.152;36.614;2022-09-09T03:55:08;7.18;;;4.43;;
58055;SDS011;53159;55.152;36.614;2022-09-09T03:57:36;6.10;;;4.43;;
58055;SDS011;53159;55.152;36.614;2022-09-09T04:00:09;6.13;;;4.03;;
58055;SDS011;53159;55.152;36.614;2022-09-09T04:02:44;6.68;;;4.72;;
58055;SDS011;53159;55.152;36.614;2022-09-09T04:05:17;3.97;;;3.58;;
58055;SDS011;53159;55.152;36.614;2022-09-09T04:07:46;6.55;;;3.80;;
58055;SDS011;53159;55.152;36.614;2022-09-09T04:10:13;4.80;;;4.15;;
58055;SDS011;53159;55.152;36.614;2022-09-09T04:12:42;4.70;;;4.10;;
58055;SDS011;53159;55.152;36.614;2022-09-09T04:15:09;5.43;;;3.40;;
58055;SDS011;53159;55.152;36.614;2022-09-09T04:17:38;4.57;;;3.22;;
58055;SDS011;53159;55.152;36.614;2022-09-09T04:20:05;3.92;;;3.08;;
58055;SDS011;53159;55.152;36.614;2022-09-09T04:22:33;6.57;;;3.85;;
58055;SDS011;53159;55.152;36.614;2022-09-09T04:25:00;4.18;;;3.72;;
58055;SDS011;53159;55.152;36.614;2022-09-09T04:27:29;3.70;;;3.30;;
58055;SDS011;53159;55.152;36.614;2022-09-09T04:29:59;6.90;;;3.65;;
58055;SDS011;53159;55.152;36.614;2022-09-09T04:32:29;3.72;;;3.35;;
58055;SDS011;53159;55.152;36.614;2022-09-09T04:34:59;4.68;;;3.53;;
58055;SDS011;53159;55.152;36.614;2022-09-09T04:37:27;5.97;;;3.95;;
58055;SDS011;53159;55.152;36.614;2022-09-09T04:39:55;3.72;;;3.08;;
58055;SDS011;53159;55.152;36.614;2022-09-09T04:42:21;4.22;;;3.08;;
58055;SDS011;53159;55.152;36.614;2022-09-09T04:44:51;6.32;;;2.80;;
58055;SDS011;53159;55.152;36.614;2022-09-09T04:47:18;4.00;;;2.85;;
58055;SDS011;53159;55.152;36.614;2022-09-09T04:49:48;4.22;;;2.75;;
58055;SDS011;53159;55.152;36.614;2022-09-09T04:52:17;3.97;;;3.25;;
58055;SDS011;53159;55.152;36.614;2022-09-09T04:54:47;5.63;;;3.35;;
58055;SDS011;53159;55.152;36.614;2022-09-09T04:57:15;5.25;;;3.63;;
58055;SDS011;53159;55.152;36.614;2022-09-09T05:02:49;3.28;;;2.60;;
58055;SDS011;53159;55.152;36.614;2022-09-09T05:05:17;4.47;;;2.85;;
58055;SDS011;53159;55.152;36.614;2022-09-09T05:07:46;4.38;;;3.28;;
58055;SDS011;53159;55.152;36.614;2022-09-09T05:10:14;5.80;;;3.00;;
58055;SDS011;53159;55.152;36.614;2022-09-09T05:12:52;3.03;;;2.40;;
58055;SDS011;53159;55.152;36.614;2022-09-09T05:15:24;3.47;;;2.38;;
58055;SDS011;53159;55.152;36.614;2022-09-09T05:17:51;3.10;;;2.42;;
58055;SDS011;53159;55.152;36.614;2022-09-09T05:20:19;4.10;;;2.88;;
58055;SDS011;53159;55.152;36.614;2022-09-09T05:22:54;4.57;;;3.40;;
58055;SDS011;53159;55.152;36.614;2022-09-09T05:25:31;5.05;;;3.22;;
58055;SDS011;53159;55.152;36.614;2022-09-09T05:27:58;5.32;;;2.95;;
58055;SDS011;53159;55.152;36.614;2022-09-09T05:30:25;4.55;;;2.97;;
58055;SDS011;53159;55.152;36.614;2022-09-09T05:32:55;8.18;;;3.88;;
58055;SDS011;53159;55.152;36.614;2022-09-09T05:35:23;6.85;;;3.80;;
58055;SDS011;53159;55.152;36.614;2022-09-09T05:37:50;6.13;;;3.45;;
58055;SDS011;53159;55.152;36.614;2022-09-09T05:40:17;5.47;;;4.13;;
58055;SDS011;53159;55.152;36.614;2022-09-09T05:42:45;7.25;;;3.67;;
58055;SDS011;53159;55.152;36.614;2022-09-09T05:45:13;7.38;;;4.15;;
58055;SDS011;53159;55.152;36.614;2022-09-09T05:47:40;6.80;;;3.58;;
58055;SDS011;53159;55.152;36.614;2022-09-09T05:50:10;5.90;;;3.38;;
58055;SDS011;53159;55.152;36.614;2022-09-09T05:52:37;6.60;;;3.85;;
58055;SDS011;53159;55.152;36.614;2022-09-09T05:55:07;6.05;;;4.35;;
58055;SDS011;53159;55.152;36.614;2022-09-09T05:57:34;5.25;;;3.60;;
58055;SDS011;53159;55.152;36.614;2022-09-09T06:00:02;5.88;;;3.50;;
58055;SDS011;53159;55.152;36.614;2022-09-09T06:02:42;7.22;;;4.43;;
58055;SDS011;53159;55.152;36.614;2022-09-09T06:05:15;8.00;;;4.03;;
58055;SDS011;53159;55.152;36.614;2022-09-09T06:07:43;5.70;;;3.67;;
58055;SDS011;53159;55.152;36.614;2022-09-09T06:10:12;7.00;;;3.35;;
58055;SDS011;53159;55.152;36.614;2022-09-09T06:12:41;5.25;;;3.33;;
58055;SDS011;53159;55.152;36.614;2022-09-09T06:15:09;9.68;;;3.45;;
58055;SDS011;53159;55.152;36.614;2022-09-09T06:17:36;6.28;;;3.47;;
58055;SDS011;53159;55.152;36.614;2022-09-09T06:20:06;7.75;;;3.28;;
58055;SDS011;53159;55.152;36.614;2022-09-09T06:22:36;4.05;;;2.30;;
58055;SDS011;53159;55.152;36.614;2022-09-09T06:25:07;3.85;;;2.40;;
58055;SDS011;53159;55.152;36.614;2022-09-09T06:27:38;3.42;;;2.45;;
58055;SDS011;53159;55.152;36.614;2022-09-09T06:30:05;4.03;;;2.03;;
58055;SDS011;53159;55.152;36.614;2022-09-09T06:32:33;2.80;;;1.90;;
58055;SDS011;53159;55.152;36.614;2022-09-09T06:35:02;6.00;;;1.33;;
58055;SDS011;53159;55.152;36.614;2022-09-09T06:37:31;3.40;;;1.67;;
58055;SDS011;53159;55.152;36.614;2022-09-09T06:39:58;4.10;;;1.60;;
58055;SDS011;53159;55.152;36.614;2022-09-09T06:42:26;3.13;;;1.60;;
58055;SDS011;53159;55.152;36.614;2022-09-09T06:45:12;5.82;;;1.98;;
58055;SDS011;53159;55.152;36.614;2022-09-09T06:50:19;1.27;;;0.60;;
58055;SDS011;53159;55.152;36.614;2022-09-09T06:52:49;1.67;;;0.70;;
58055;SDS011;53159;55.152;36.614;2022-09-09T06:55:17;0.85;;;0.57;;
58055;SDS011;53159;55.152;36.614;2022-09-09T06:57:44;0.60;;;0.55;;
58055;SDS011;53159;55.152;36.614;2022-09-09T07:00:20;1.63;;;1.15;;
58055;SDS011;53159;55.152;36.614;2022-09-09T07:02:48;1.25;;;0.95;;
58055;SDS011;53159;55.152;36.614;2022-09-09T07:05:17;0.70;;;0.70;;
58055;SDS011;53159;55.152;36.614;2022-09-09T07:07:45;5.57;;;0.80;;
58055;SDS011;53159;55.152;36.614;2022-09-09T07:10:16;0.52;;;0.52;;
58055;SDS011;53159;55.152;36.614;2022-09-09T07:12:44;0.80;;;0.75;;
58055;SDS011;53159;55.152;36.614;2022-09-09T07:15:19;1.40;;;0.82;;
58055;SDS011;53159;55.152;36.614;2022-09-09T07:17:49;0.60;;;0.60;;
58055;SDS011;53159;55.152;36.614;2022-09-09T07:20:16;0.90;;;0.65;;
58055;SDS011;53159;55.152;36.614;2022-09-09T07:22:44;1.05;;;0.60;;
58055;SDS011;53159;55.152;36.614;2022-09-09T07:25:11;0.73;;;0.70;;
58055;SDS011;53159;55.152;36.614;2022-09-09T07:27:41;3.35;;;0.75;;
58055;SDS011;53159;55.152;36.614;2022-09-09T07:30:09;0.60;;;0.52;;
58055;SDS011;53159;55.152;36.614;2022-09-09T07:32:38;1.75;;;0.65;;
58055;SDS011;53159;55.152;36.614;2022-09-09T07:35:05;0.82;;;0.70;;
58055;SDS011;53159;55.152;36.614;2022-09-09T07:37:32;0.40;;;0.40;;
58055;SDS011;53159;55.152;36.614;2022-09-09T07:40:04;0.57;;;0.57;;
58055;SDS011;53159;55.152;36.614;2022-09-09T07:42:31;0.52;;;0.43;;
58055;SDS011;53159;55.152;36.614;2022-09-09T07:44:58;0.63;;;0.45;;
58055;SDS011;53159;55.152;36.614;2022-09-09T07:47:27;0.50;;;0.50;;
58055;SDS011;53159;55.152;36.614;2022-09-09T07:49:55;1.00;;;0.73;;
58055;SDS011;53159;55.152;36.614;2022-09-09T07:52:29;0.93;;;0.60;;
58055;SDS011;53159;55.152;36.614;2022-09-09T07:55:03;0.73;;;0.50;;
58055;SDS011;53159;55.152;36.614;2022-09-09T07:57:34;2.00;;;0.43;;
58055;SDS011;53159;55.152;36.614;2022-09-09T08:00:03;0.77;;;0.50;;
58055;SDS011;53159;55.152;36.614;2022-09-09T08:02:40;1.30;;;0.70;;
58055;SDS011;53159;55.152;36.614;2022-09-09T08:05:09;5.97;;;1.30;;
58055;SDS011;53159;55.152;36.614;2022-09-09T08:07:38;0.65;;;0.65;;
58055;SDS011;53159;55.152;36.614;2022-09-09T08:10:05;2.38;;;0.80;;
58055;SDS011;53159;55.152;36.614;2022-09-09T08:12:37;1.38;;;0.60;;
58055;SDS011;53159;55.152;36.614;2022-09-09T08:15:06;4.68;;;0.80;;
58055;SDS011;53159;55.152;36.614;2022-09-09T08:17:34;1.15;;;0.73;;
58055;SDS011;53159;55.152;36.614;2022-09-09T08:20:06;1.33;;;0.50;;
58055;SDS011;53159;55.152;36.614;2022-09-09T08:22:36;0.60;;;0.60;;
58055;SDS011;53159;55.152;36.614;2022-09-09T08:25:05;0.47;;;0.47;;
58055;SDS011;53159;55.152;36.614;2022-09-09T08:27:36;2.13;;;0.70;;
58055;SDS011;53159;55.152;36.614;2022-09-09T08:30:05;1.52;;;0.65;;
58055;SDS011;53159;55.152;36.614;2022-09-09T08:32:34;0.75;;;0.75;;
58055;SDS011;53159;55.152;36.614;2022-09-09T08:35:02;1.25;;;0.60;;
58055;SDS011;53159;55.152;36.614;2022-09-09T08:37:30;0.85;;;0.82;;
58055;SDS011;53159;55.152;36.614;2022-09-09T08:39:58;0.70;;;0.70;;
58055;SDS011;53159;55.152;36.614;2022-09-09T08:42:28;1.10;;;0.70;;
58055;SDS011;53159;55.152;36.614;2022-09-09T08:45:12;0.43;;;0.43;;
58055;SDS011;53159;55.152;36.614;2022-09-09T08:50:36;1.67;;;0.80;;
58055;SDS011;53159;55.152;36.614;2022-09-09T08:55:47;1.30;;;0.90;;
58055;SDS011;53159;55.152;36.614;2022-09-09T08:58:28;2.58;;;0.90;;
58055;SDS011;53159;55.152;36.614;2022-09-09T09:12:47;1.02;;;0.57;;
58055;SDS011;53159;55.152;36.614;2022-09-09T09:15:21;0.70;;;0.70;;
58055;SDS011;53159;55.152;36.614;2022-09-09T09:17:54;2.20;;;1.15;;
58055;SDS011;53159;55.152;36.614;2022-09-09T09:20:24;1.92;;;0.80;;
58055;SDS011;53159;55.152;36.614;2022-09-09T09:23:06;0.95;;;0.70;;
58055;SDS011;53159;55.152;36.614;2022-09-09T09:25:47;1.20;;;0.60;;
58055;SDS011;53159;55.152;36.614;2022-09-09T09:28:17;0.52;;;0.52;;
58055;SDS011;53159;55.152;36.614;2022-09-09T09:31:06;2.08;;;1.02;;
58055;SDS011;53159;55.152;36.614;2022-09-09T09:36:37;1.67;;;0.70;;
58055;SDS011;53159;55.152;36.614;2022-09-09T09:39:25;0.80;;;0.80;;
58055;SDS011;53159;55.152;36.614;2022-09-09T09:41:58;1.13;;;0.70;;
58055;SDS011;53159;55.152;36.614;2022-09-09T09:44:43;1.17;;;1.08;;
58055;SDS011;53159;55.152;36.614;2022-09-09T09:47:20;0.98;;;0.98;;
58055;SDS011;53159;55.152;36.614;2022-09-09T09:50:03;1.33;;;0.80;;
58055;SDS011;53159;55.152;36.614;2022-09-09T09:52:37;1.88;;;1.63;;
58055;SDS011;53159;55.152;36.614;2022-09-09T09:55:12;3.33;;;0.90;;
58055;SDS011;53159;55.152;36.614;2022-09-09T09:57:41;0.70;;;0.57;;
58055;SDS011;53159;55.152;36.614;2022-09-09T10:00:16;2.08;;;0.63;;
58055;SDS011;53159;55.152;36.614;2022-09-09T10:02:53;1.17;;;0.60;;
58055;SDS011;53159;55.152;36.614;2022-09-09T10:05:30;1.33;;;0.80;;
58055;SDS011;53159;55.152;36.614;2022-09-09T10:08:12;1.10;;;1.00;;
58055;SDS011;53159;55.152;36.614;2022-09-09T10:13:20;1.40;;;0.93;;
58055;SDS011;53159;55.152;36.614;2022-09-09T10:16:13;1.45;;;0.80;;
58055;SDS011;53159;55.152;36.614;2022-09-09T10:19:08;1.90;;;0.80;;
58055;SDS011;53159;55.152;36.614;2022-09-09T10:21:56;0.88;;;0.70;;
58055;SDS011;53159;55.152;36.614;2022-09-09T10:27:47;1.42;;;1.13;;
58055;SDS011;53159;55.152;36.614;2022-09-09T10:33:33;0.82;;;0.70;;
58055;SDS011;53159;55.152;36.614;2022-09-09T10:36:20;1.30;;;0.80;;
58055;SDS011;53159;55.152;36.614;2022-09-09T10:39:10;0.60;;;0.60;;
58055;SDS011;53159;55.152;36.614;2022-09-09T10:45:10;1.00;;;0.90;;
58055;SDS011;53159;55.152;36.614;2022-09-09T10:56:35;2.03;;;0.93;;
58055;SDS011;53159;55.152;36.614;2022-09-09T10:59:20;1.17;;;0.80;;
58055;SDS011;53159;55.152;36.614;2022-09-09T11:04:55;0.90;;;0.50;;
58055;SDS011;53159;55.152;36.614;2022-09-09T11:07:36;1.05;;;0.80;;
58055;SDS011;53159;55.152;36.614;2022-09-09T11:10:30;0.85;;;0.73;;
58055;SDS011;53159;55.152;36.614;2022-09-09T11:13:21;4.57;;;1.15;;
58055;SDS011;53159;55.152;36.614;2022-09-09T11:16:15;1.23;;;0.95;;
58055;SDS011;53159;55.152;36.614;2022-09-09T11:19:11;2.47;;;1.13;;
58055;SDS011;53159;55.152;36.614;2022-09-09T11:21:45;1.80;;;0.77;;
58055;SDS011;53159;55.152;36.614;2022-09-09T11:24:22;1.50;;;0.80;;
58055;SDS011;53159;55.152;36.614;2022-09-09T11:35:27;1.23;;;0.80;;
58055;SDS011;53159;55.152;36.614;2022-09-09T11:40:45;2.60;;;0.75;;
58055;SDS011;53159;55.152;36.614;2022-09-09T11:43:16;0.77;;;0.60;;
58055;SDS011;53159;55.152;36.614;2022-09-09T11:45:53;0.77;;;0.52;;
58055;SDS011;53159;55.152;36.614;2022-09-09T11:48:27;1.13;;;0.70;;
58055;SDS011;53159;55.152;36.614;2022-09-09T11:51:05;1.23;;;0.68;;
58055;SDS011;53159;55.152;36.614;2022-09-09T11:56:32;0.60;;;0.60;;
58055;SDS011;53159;55.152;36.614;2022-09-09T11:59:23;0.75;;;0.75;;
58055;SDS011;53159;55.152;36.614;2022-09-09T12:07:35;1.15;;;0.60;;
58055;SDS011;53159;55.152;36.614;2022-09-09T12:10:23;2.50;;;0.93;;
58055;SDS011;53159;55.152;36.614;2022-09-09T12:13:17;2.60;;;0.80;;
58055;SDS011;53159;55.152;36.614;2022-09-09T12:15:46;1.27;;;0.77;;
58055;SDS011;53159;55.152;36.614;2022-09-09T12:21:26;7.47;;;1.05;;
58055;SDS011;53159;55.152;36.614;2022-09-09T12:23:50;0.50;;;0.45;;
58055;SDS011;53159;55.152;36.614;2022-09-09T12:26:41;1.60;;;0.60;;
58055;SDS011;53159;55.152;36.614;2022-09-09T12:29:25;0.65;;;0.60;;
58055;SDS011;53159;55.152;36.614;2022-09-09T12:34:37;1.92;;;0.90;;
58055;SDS011;53159;55.152;36.614;2022-09-09T12:37:16;0.50;;;0.50;;
58055;SDS011;53159;55.152;36.614;2022-09-09T12:39:49;2.30;;;0.60;;
58055;SDS011;53159;55.152;36.614;2022-09-09T12:42:23;0.90;;;0.70;;
58055;SDS011;53159;55.152;36.614;2022-09-09T12:44:51;2.63;;;0.60;;
58055;SDS011;53159;55.152;36.614;2022-09-09T12:47:20;0.88;;;0.70;;
58055;SDS011;53159;55.152;36.614;2022-09-09T12:49:55;0.90;;;0.63;;
58055;SDS011;53159;55.152;36.614;2022-09-09T12:52:31;0.60;;;0.50;;
58055;SDS011;53159;55.152;36.614;2022-09-09T12:55:00;1.55;;;0.63;;
58055;SDS011;53159;55.152;36.614;2022-09-09T12:57:33;0.63;;;0.60;;
58055;SDS011;53159;55.152;36.614;2022-09-09T13:00:13;1.08;;;0.68;;
58055;SDS011;53159;55.152;36.614;2022-09-09T13:03:01;0.25;;;0.25;;
58055;SDS011;53159;55.152;36.614;2022-09-09T13:05:37;0.70;;;0.70;;
58055;SDS011;53159;55.152;36.614;2022-09-09T13:08:05;1.35;;;0.50;;
58055;SDS011;53159;55.152;36.614;2022-09-09T13:10:39;1.45;;;1.00;;
58055;SDS011;53159;55.152;36.614;2022-09-09T13:13:14;5.07;;;1.35;;
58055;SDS011;53159;55.152;36.614;2022-09-09T13:15:57;0.70;;;0.70;;
58055;SDS011;53159;55.152;36.614;2022-09-09T13:18:36;0.73;;;0.73;;
58055;SDS011;53159;55.152;36.614;2022-09-09T13:21:06;0.80;;;0.70;;
58055;SDS011;53159;55.152;36.614;2022-09-09T13:23:34;1.08;;;0.80;;
58055;SDS011;53159;55.152;36.614;2022-09-09T13:26:05;0.82;;;0.80;;
58055;SDS011;53159;55.152;36.614;2022-09-09T13:28:48;0.40;;;0.40;;
58055;SDS011;53159;55.152;36.614;2022-09-09T13:31:22;1.23;;;0.88;;
58055;SDS011;53159;55.152;36.614;2022-09-09T13:33:55;0.82;;;0.50;;
58055;SDS011;53159;55.152;36.614;2022-09-09T13:36:31;0.65;;;0.60;;
58055;SDS011;53159;55.152;36.614;2022-09-09T13:39:02;2.55;;;0.90;;
58055;SDS011;53159;55.152;36.614;2022-09-09T13:41:35;1.50;;;0.90;;
58055;SDS011;53159;55.152;36.614;2022-09-09T13:44:03;0.63;;;0.40;;
58055;SDS011;53159;55.152;36.614;2022-09-09T13:46:35;0.68;;;0.55;;
58055;SDS011;53159;55.152;36.614;2022-09-09T13:54:13;1.30;;;0.73;;
58055;SDS011;53159;55.152;36.614;2022-09-09T13:56:43;0.63;;;0.52;;
58055;SDS011;53159;55.152;36.614;2022-09-09T13:59:13;0.85;;;0.68;;
58055;SDS011;53159;55.152;36.614;2022-09-09T14:01:42;0.55;;;0.55;;
58055;SDS011;53159;55.152;36.614;2022-09-09T14:04:10;1.35;;;0.68;;
58055;SDS011;53159;55.152;36.614;2022-09-09T14:06:37;1.35;;;0.60;;
58055;SDS011;53159;55.152;36.614;2022-09-09T14:09:06;1.48;;;0.80;;
58055;SDS011;53159;55.152;36.614;2022-09-09T14:11:37;1.45;;;0.77;;
58055;SDS011;53159;55.152;36.614;2022-09-09T14:14:06;1.30;;;0.70;;
58055;SDS011;53159;55.152;36.614;2022-09-09T14:16:33;1.17;;;0.80;;
58055;SDS011;53159;55.152;36.614;2022-09-09T14:18:59;0.75;;;0.70;;
58055;SDS011;53159;55.152;36.614;2022-09-09T14:21:28;3.40;;;0.95;;
58055;SDS011;53159;55.152;36.614;2022-09-09T14:23:55;1.88;;;1.17;;
58055;SDS011;53159;55.152;36.614;2022-09-09T14:26:25;2.50;;;0.98;;
58055;SDS011;53159;55.152;36.614;2022-09-09T14:28:52;2.65;;;0.80;;
58055;SDS011;53159;55.152;36.614;2022-09-09T14:31:20;1.42;;;0.88;;
58055;SDS011;53159;55.152;36.614;2022-09-09T14:33:46;3.40;;;0.80;;
58055;SDS011;53159;55.152;36.614;2022-09-09T14:36:13;0.60;;;0.60;;
58055;SDS011;53159;55.152;36.614;2022-09-09T14:38:42;0.90;;;0.70;;
58055;SDS011;53159;55.152;36.614;2022-09-09T14:41:09;0.73;;;0.70;;
58055;SDS011;53159;55.152;36.614;2022-09-09T14:43:38;1.00;;;0.70;;
58055;SDS011;53159;55.152;36.614;2022-09-09T14:46:12;1.65;;;0.70;;
58055;SDS011;53159;55.152;36.614;2022-09-09T14:48:42;1.58;;;0.80;;
58055;SDS011;53159;55.152;36.614;2022-09-09T14:51:14;0.75;;;0.70;;
58055;SDS011;53159;55.152;36.614;2022-09-09T14:53:46;2.65;;;0.60;;
58055;SDS011;53159;55.152;36.614;2022-09-09T14:56:15;0.77;;;0.70;;
58055;SDS011;53159;55.152;36.614;2022-09-09T14:58:44;3.60;;;1.15;;
58055;SDS011;53159;55.152;36.614;2022-09-09T15:01:13;2.78;;;0.77;;
58055;SDS011;53159;55.152;36.614;2022-09-09T15:03:43;2.28;;;0.80;;
58055;SDS011;53159;55.152;36.614;2022-09-09T15:06:17;0.80;;;0.73;;
58055;SDS011;53159;55.152;36.614;2022-09-09T15:08:45;0.60;;;0.60;;
58055;SDS011;53159;55.152;36.614;2022-09-09T15:11:13;0.90;;;0.80;;
58055;SDS011;53159;55.152;36.614;2022-09-09T15:13:43;0.80;;;0.60;;
58055;SDS011;53159;55.152;36.614;2022-09-09T15:16:15;1.60;;;1.00;;
58055;SDS011;53159;55.152;36.614;2022-09-09T15:18:45;1.98;;;0.70;;
58055;SDS011;53159;55.152;36.614;2022-09-09T15:21:14;0.90;;;0.70;;
58055;SDS011;53159;55.152;36.614;2022-09-09T15:23:42;5.00;;;1.27;;
58055;SDS011;53159;55.152;36.614;2022-09-09T15:26:10;3.00;;;0.70;;
58055;SDS011;53159;55.152;36.614;2022-09-09T15:28:40;2.72;;;0.90;;
58055;SDS011;53159;55.152;36.614;2022-09-09T15:31:11;2.40;;;0.93;;
58055;SDS011;53159;55.152;36.614;2022-09-09T15:33:47;1.02;;;0.93;;
58055;SDS011;53159;55.152;36.614;2022-09-09T15:36:21;2.58;;;0.63;;
58055;SDS011;53159;55.152;36.614;2022-09-09T15:38:51;1.80;;;0.60;;
58055;SDS011;53159;55.152;36.614;2022-09-09T15:41:19;0.50;;;0.50;;
58055;SDS011;53159;55.152;36.614;2022-09-09T15:43:51;1.35;;;1.25;;
58055;SDS011;53159;55.152;36.614;2022-09-09T15:46:26;1.63;;;0.93;;
58055;SDS011;53159;55.152;36.614;2022-09-09T15:48:57;2.05;;;0.85;;
58055;SDS011;53159;55.152;36.614;2022-09-09T15:51:30;0.75;;;0.70;;
58055;SDS011;53159;55.152;36.614;2022-09-09T15:53:58;0.77;;;0.75;;
58055;SDS011;53159;55.152;36.614;2022-09-09T15:56:26;1.23;;;0.77;;
58055;SDS011;53159;55.152;36.614;2022-09-09T15:58:56;1.08;;;0.98;;
58055;SDS011;53159;55.152;36.614;2022-09-09T16:01:24;9.18;;;0.88;;
58055;SDS011;53159;55.152;36.614;2022-09-09T16:03:54;1.27;;;0.82;;
58055;SDS011;53159;55.152;36.614;2022-09-09T16:06:22;1.40;;;0.75;;
58055;SDS011;53159;55.152;36.614;2022-09-09T16:08:51;1.27;;;1.05;;
58055;SDS011;53159;55.152;36.614;2022-09-09T16:11:24;1.13;;;0.65;;
58055;SDS011;53159;55.152;36.614;2022-09-09T16:13:52;1.35;;;1.10;;
58055;SDS011;53159;55.152;36.614;2022-09-09T16:16:21;0.82;;;0.73;;
58055;SDS011;53159;55.152;36.614;2022-09-09T16:18:51;2.70;;;0.73;;
58055;SDS011;53159;55.152;36.614;2022-09-09T16:21:27;1.88;;;1.10;;
58055;SDS011;53159;55.152;36.614;2022-09-09T16:23:57;1.00;;;0.80;;
58055;SDS011;53159;55.152;36.614;2022-09-09T16:26:25;2.42;;;0.93;;
58055;SDS011;53159;55.152;36.614;2022-09-09T16:28:53;3.25;;;1.10;;
58055;SDS011;53159;55.152;36.614;2022-09-09T16:31:23;2.10;;;0.90;;
58055;SDS011;53159;55.152;36.614;2022-09-09T16:33:50;2.17;;;0.90;;
58055;SDS011;53159;55.152;36.614;2022-09-09T16:36:23;2.78;;;1.20;;
58055;SDS011;53159;55.152;36.614;2022-09-09T16:38:52;1.67;;;1.25;;
58055;SDS011;53159;55.152;36.614;2022-09-09T16:41:21;1.15;;;0.80;;
58055;SDS011;53159;55.152;36.614;2022-09-09T16:43:55;1.58;;;1.13;;
58055;SDS011;53159;55.152;36.614;2022-09-09T16:46:29;1.30;;;0.95;;
58055;SDS011;53159;55.152;36.614;2022-09-09T16:48:58;2.75;;;1.25;;
58055;SDS011;53159;55.152;36.614;2022-09-09T16:51:28;4.40;;;1.30;;
58055;SDS011;53159;55.152;36.614;2022-09-09T16:54:01;2.13;;;1.08;;
58055;SDS011;53159;55.152;36.614;2022-09-09T16:56:33;1.33;;;1.00;;
58055;SDS011;53159;55.152;36.614;2022-09-09T16:59:14;1.58;;;1.02;;